KGCN/GCN METAR and TAF weather

Enter ICAO airport designator
Station Type Date Time Source
KGCN METAR 2020/09/19 05:54 UTC NOAA

KGCN 190554Z AUTO 00000KT 10SM SCT120 10/M06 A3029 RMK AO2 SLP162 T01001056 10272 20100 51005


Station Type Date Time Source
KGCN Decoded METAR 2020/09/19 05:54 UTC NOAA

GRAND CANYON NATL PARK AIRPORT , AZ, United States (KGCN) 35-57N 112-09W 2016M
Sep 19, 2020 - 01:54 AM EDT / 2020.09.19 0554 UTC
Wind: Calm:0
Visibility: 10 mile(s):0
Sky conditions: partly cloudy
Temperature: 50.0 F (10.0 C)
Dew Point: 21.9 F (-5.6 C)
Relative Humidity: 32%
Pressure (altimeter): 30.29 in. Hg (1025 hPa)
Pressure tendency: 0.01 inches (0.5 hPa) higher than three hours ago
ob: KGCN 190554Z AUTO 00000KT 10SM SCT120 10/M06 A3029 RMK AO2 SLP162 T01001056 10272 20100 51005
cycle: 6

Station Type Date Time Source
KGCN TAF 2020/09/19 06:22 UTC NOAA

TAF KGCN 190520Z 1906/2006 VRB06KT P6SM FEW150
FM191800 19009G15KT P6SM FEW080
FM200300 22007KT P6SM SKC

Example: see airport list